sensor_id;sensor_type;location;lat;lon;timestamp;temperature;humidity
32217;DHT22;18709;51.140;4.088;2022-09-09T00:01:46;19.00;85.40
32217;DHT22;18709;51.140;4.088;2022-09-09T00:15:41;19.00;85.30
32217;DHT22;18709;51.140;4.088;2022-09-09T00:18:27;19.00;85.30
32217;DHT22;18709;51.140;4.088;2022-09-09T00:23:38;19.00;85.20
32217;DHT22;18709;51.140;4.088;2022-09-09T00:31:35;19.00;85.70
32217;DHT22;18709;51.140;4.088;2022-09-09T00:34:22;19.00;85.90
32217;DHT22;18709;51.140;4.088;2022-09-09T00:36:51;19.00;85.80
32217;DHT22;18709;51.140;4.088;2022-09-09T00:39:41;18.90;85.80
32217;DHT22;18709;51.140;4.088;2022-09-09T00:50:25;18.80;86.40
32217;DHT22;18709;51.140;4.088;2022-09-09T00:53:17;18.80;86.20
32217;DHT22;18709;51.140;4.088;2022-09-09T00:56:19;18.70;86.10
32217;DHT22;18709;51.140;4.088;2022-09-09T00:59:05;18.80;85.90
32217;DHT22;18709;51.140;4.088;2022-09-09T01:01:32;18.70;86.00
32217;DHT22;18709;51.140;4.088;2022-09-09T01:03:58;18.70;86.30
32217;DHT22;18709;51.140;4.088;2022-09-09T01:06:33;18.70;86.00
32217;DHT22;18709;51.140;4.088;2022-09-09T01:09:22;18.70;85.90
32217;DHT22;18709;51.140;4.088;2022-09-09T01:27:37;18.40;87.00
32217;DHT22;18709;51.140;4.088;2022-09-09T01:30:10;18.40;86.80
32217;DHT22;18709;51.140;4.088;2022-09-09T01:32:40;18.40;86.60
32217;DHT22;18709;51.140;4.088;2022-09-09T01:35:15;18.40;86.70
32217;DHT22;18709;51.140;4.088;2022-09-09T01:37:44;18.40;86.60
32217;DHT22;18709;51.140;4.088;2022-09-09T01:40:10;18.30;87.50
32217;DHT22;18709;51.140;4.088;2022-09-09T01:42:36;18.30;87.00
32217;DHT22;18709;51.140;4.088;2022-09-09T01:45:03;18.40;86.70
32217;DHT22;18709;51.140;4.088;2022-09-09T01:47:29;18.40;86.60
32217;DHT22;18709;51.140;4.088;2022-09-09T01:49:55;18.40;86.20
32217;DHT22;18709;51.140;4.088;2022-09-09T01:52:20;18.40;86.80
32217;DHT22;18709;51.140;4.088;2022-09-09T01:54:47;18.40;86.40
32217;DHT22;18709;51.140;4.088;2022-09-09T02:00:07;18.40;86.50
32217;DHT22;18709;51.140;4.088;2022-09-09T02:03:13;18.30;86.80
32217;DHT22;18709;51.140;4.088;2022-09-09T02:05:52;18.30;86.60
32217;DHT22;18709;51.140;4.088;2022-09-09T02:08:24;18.30;86.60
32217;DHT22;18709;51.140;4.088;2022-09-09T02:11:01;18.30;87.30
32217;DHT22;18709;51.140;4.088;2022-09-09T02:13:29;18.30;87.30
32217;DHT22;18709;51.140;4.088;2022-09-09T02:21:19;18.20;87.50
32217;DHT22;18709;51.140;4.088;2022-09-09T02:23:47;18.20;87.50
32217;DHT22;18709;51.140;4.088;2022-09-09T02:26:16;18.20;87.70
32217;DHT22;18709;51.140;4.088;2022-09-09T02:28:46;18.20;87.60
32217;DHT22;18709;51.140;4.088;2022-09-09T02:31:16;18.20;87.30
32217;DHT22;18709;51.140;4.088;2022-09-09T02:33:46;18.10;88.00
32217;DHT22;18709;51.140;4.088;2022-09-09T02:36:15;18.10;88.10
32217;DHT22;18709;51.140;4.088;2022-09-09T02:38:48;18.10;88.20
32217;DHT22;18709;51.140;4.088;2022-09-09T02:41:18;18.10;88.10
32217;DHT22;18709;51.140;4.088;2022-09-09T02:43:45;18.10;88.40
32217;DHT22;18709;51.140;4.088;2022-09-09T02:49:09;18.10;88.70
32217;DHT22;18709;51.140;4.088;2022-09-09T02:54:39;17.90;89.90
32217;DHT22;18709;51.140;4.088;2022-09-09T02:59:39;17.90;90.00
32217;DHT22;18709;51.140;4.088;2022-09-09T03:02:05;17.90;89.90
32217;DHT22;18709;51.140;4.088;2022-09-09T03:04:31;17.90;90.00
32217;DHT22;18709;51.140;4.088;2022-09-09T03:06:58;17.90;90.10
32217;DHT22;18709;51.140;4.088;2022-09-09T03:09:24;17.80;90.20
32217;DHT22;18709;51.140;4.088;2022-09-09T03:11:51;17.80;90.40
32217;DHT22;18709;51.140;4.088;2022-09-09T03:14:17;17.80;90.30
32217;DHT22;18709;51.140;4.088;2022-09-09T03:16:47;17.80;90.30
32217;DHT22;18709;51.140;4.088;2022-09-09T03:19:12;17.90;90.20
32217;DHT22;18709;51.140;4.088;2022-09-09T03:21:38;17.80;90.30
32217;DHT22;18709;51.140;4.088;2022-09-09T03:24:04;18.00;90.00
32217;DHT22;18709;51.140;4.088;2022-09-09T03:26:32;17.90;90.10
32217;DHT22;18709;51.140;4.088;2022-09-09T03:28:57;17.90;90.20
32217;DHT22;18709;51.140;4.088;2022-09-09T03:31:26;17.90;90.20
32217;DHT22;18709;51.140;4.088;2022-09-09T03:33:56;17.80;90.40
32217;DHT22;18709;51.140;4.088;2022-09-09T03:36:22;17.80;90.40
32217;DHT22;18709;51.140;4.088;2022-09-09T03:38:48;17.80;90.40
32217;DHT22;18709;51.140;4.088;2022-09-09T03:41:14;17.80;90.20
32217;DHT22;18709;51.140;4.088;2022-09-09T03:43:39;17.80;90.20
32217;DHT22;18709;51.140;4.088;2022-09-09T03:46:06;17.80;90.30
32217;DHT22;18709;51.140;4.088;2022-09-09T03:48:32;17.80;90.30
32217;DHT22;18709;51.140;4.088;2022-09-09T03:50:58;17.80;90.40
32217;DHT22;18709;51.140;4.088;2022-09-09T03:53:27;17.60;90.70
32217;DHT22;18709;51.140;4.088;2022-09-09T03:55:54;17.70;90.80
32217;DHT22;18709;51.140;4.088;2022-09-09T03:58:22;17.70;90.60
32217;DHT22;18709;51.140;4.088;2022-09-09T04:00:57;17.80;90.60
32217;DHT22;18709;51.140;4.088;2022-09-09T04:03:23;17.80;90.30
32217;DHT22;18709;51.140;4.088;2022-09-09T04:05:51;17.80;90.20
32217;DHT22;18709;51.140;4.088;2022-09-09T04:08:17;17.80;90.30
32217;DHT22;18709;51.140;4.088;2022-09-09T04:10:48;17.80;90.50
32217;DHT22;18709;51.140;4.088;2022-09-09T04:13:17;17.80;90.40
32217;DHT22;18709;51.140;4.088;2022-09-09T04:15:44;17.80;90.50
32217;DHT22;18709;51.140;4.088;2022-09-09T04:18:15;17.80;90.40
32217;DHT22;18709;51.140;4.088;2022-09-09T04:20:41;17.80;90.10
32217;DHT22;18709;51.140;4.088;2022-09-09T04:23:08;17.90;90.20
32217;DHT22;18709;51.140;4.088;2022-09-09T04:25:34;17.90;90.20
32217;DHT22;18709;51.140;4.088;2022-09-09T04:28:00;17.80;90.30
32217;DHT22;18709;51.140;4.088;2022-09-09T04:30:26;17.70;90.50
32217;DHT22;18709;51.140;4.088;2022-09-09T04:32:53;17.70;90.60
32217;DHT22;18709;51.140;4.088;2022-09-09T04:35:19;17.70;90.50
32217;DHT22;18709;51.140;4.088;2022-09-09T04:37:45;17.80;90.20
32217;DHT22;18709;51.140;4.088;2022-09-09T04:40:12;17.80;90.50
32217;DHT22;18709;51.140;4.088;2022-09-09T04:42:38;17.80;90.30
32217;DHT22;18709;51.140;4.088;2022-09-09T04:45:05;17.80;90.30
32217;DHT22;18709;51.140;4.088;2022-09-09T04:47:32;17.80;90.60
32217;DHT22;18709;51.140;4.088;2022-09-09T04:49:58;17.80;90.50
32217;DHT22;18709;51.140;4.088;2022-09-09T04:52:23;17.70;90.60
32217;DHT22;18709;51.140;4.088;2022-09-09T04:54:49;17.60;90.70
32217;DHT22;18709;51.140;4.088;2022-09-09T04:57:15;17.60;90.90
32217;DHT22;18709;51.140;4.088;2022-09-09T04:59:41;17.70;90.90
32217;DHT22;18709;51.140;4.088;2022-09-09T05:02:06;17.70;90.90
32217;DHT22;18709;51.140;4.088;2022-09-09T05:04:32;17.70;90.90
32217;DHT22;18709;51.140;4.088;2022-09-09T05:06:59;17.70;90.90
32217;DHT22;18709;51.140;4.088;2022-09-09T05:09:24;17.80;90.80
32217;DHT22;18709;51.140;4.088;2022-09-09T05:11:50;17.70;91.00
32217;DHT22;18709;51.140;4.088;2022-09-09T05:14:17;17.70;91.10
32217;DHT22;18709;51.140;4.088;2022-09-09T05:16:44;17.70;91.20
32217;DHT22;18709;51.140;4.088;2022-09-09T05:19:10;17.70;91.30
32217;DHT22;18709;51.140;4.088;2022-09-09T05:21:36;17.70;91.40
32217;DHT22;18709;51.140;4.088;2022-09-09T05:24:02;17.80;91.40
32217;DHT22;18709;51.140;4.088;2022-09-09T05:26:28;17.70;91.30
32217;DHT22;18709;51.140;4.088;2022-09-09T05:28:54;17.80;91.20
32217;DHT22;18709;51.140;4.088;2022-09-09T05:31:21;17.80;91.40
32217;DHT22;18709;51.140;4.088;2022-09-09T05:33:47;17.70;91.30
32217;DHT22;18709;51.140;4.088;2022-09-09T05:36:20;17.60;91.40
32217;DHT22;18709;51.140;4.088;2022-09-09T05:38:46;17.70;91.40
32217;DHT22;18709;51.140;4.088;2022-09-09T05:41:13;17.80;91.30
32217;DHT22;18709;51.140;4.088;2022-09-09T05:43:41;17.80;91.20
32217;DHT22;18709;51.140;4.088;2022-09-09T05:46:17;17.80;91.20
32217;DHT22;18709;51.140;4.088;2022-09-09T05:48:44;17.90;91.30
32217;DHT22;18709;51.140;4.088;2022-09-09T05:51:15;18.00;90.90
32217;DHT22;18709;51.140;4.088;2022-09-09T05:53:42;18.10;90.70
32217;DHT22;18709;51.140;4.088;2022-09-09T05:56:11;18.10;90.70
32217;DHT22;18709;51.140;4.088;2022-09-09T05:58:38;18.00;90.90
32217;DHT22;18709;51.140;4.088;2022-09-09T06:01:15;18.00;91.00
32217;DHT22;18709;51.140;4.088;2022-09-09T06:03:42;18.00;90.90
32217;DHT22;18709;51.140;4.088;2022-09-09T06:06:13;18.00;91.00
32217;DHT22;18709;51.140;4.088;2022-09-09T06:08:40;18.10;90.90
32217;DHT22;18709;51.140;4.088;2022-09-09T06:11:14;18.00;90.80
32217;DHT22;18709;51.140;4.088;2022-09-09T06:13:40;18.00;90.90
32217;DHT22;18709;51.140;4.088;2022-09-09T06:16:14;18.10;90.60
32217;DHT22;18709;51.140;4.088;2022-09-09T06:18:41;18.20;90.80
32217;DHT22;18709;51.140;4.088;2022-09-09T06:21:11;18.20;90.80
32217;DHT22;18709;51.140;4.088;2022-09-09T06:23:39;18.10;91.10
32217;DHT22;18709;51.140;4.088;2022-09-09T06:26:20;18.20;90.90
32217;DHT22;18709;51.140;4.088;2022-09-09T06:28:47;18.20;91.20
32217;DHT22;18709;51.140;4.088;2022-09-09T06:31:15;18.30;91.10
32217;DHT22;18709;51.140;4.088;2022-09-09T06:33:43;18.50;90.80
32217;DHT22;18709;51.140;4.088;2022-09-09T06:36:14;18.70;90.50
32217;DHT22;18709;51.140;4.088;2022-09-09T06:38:40;18.60;90.50
32217;DHT22;18709;51.140;4.088;2022-09-09T06:41:08;18.70;90.60
32217;DHT22;18709;51.140;4.088;2022-09-09T06:43:35;18.70;90.30
32217;DHT22;18709;51.140;4.088;2022-09-09T06:46:03;18.70;90.50
32217;DHT22;18709;51.140;4.088;2022-09-09T06:48:29;18.90;90.50
32217;DHT22;18709;51.140;4.088;2022-09-09T06:51:12;19.00;90.90
32217;DHT22;18709;51.140;4.088;2022-09-09T06:53:39;19.10;90.60
32217;DHT22;18709;51.140;4.088;2022-09-09T06:56:26;19.20;90.20
32217;DHT22;18709;51.140;4.088;2022-09-09T06:58:54;19.30;90.10
32217;DHT22;18709;51.140;4.088;2022-09-09T07:01:22;19.20;90.10
32217;DHT22;18709;51.140;4.088;2022-09-09T07:03:50;19.20;90.10
32217;DHT22;18709;51.140;4.088;2022-09-09T07:06:19;19.10;90.20
32217;DHT22;18709;51.140;4.088;2022-09-09T07:08:50;19.30;90.00
32217;DHT22;18709;51.140;4.088;2022-09-09T07:11:16;19.30;90.10
32217;DHT22;18709;51.140;4.088;2022-09-09T07:13:41;19.30;90.00
32217;DHT22;18709;51.140;4.088;2022-09-09T07:16:13;19.30;90.10
32217;DHT22;18709;51.140;4.088;2022-09-09T07:18:39;19.60;89.80
32217;DHT22;18709;51.140;4.088;2022-09-09T07:21:05;19.60;89.20
32217;DHT22;18709;51.140;4.088;2022-09-09T07:23:32;19.80;89.10
32217;DHT22;18709;51.140;4.088;2022-09-09T07:25:58;19.90;89.30
32217;DHT22;18709;51.140;4.088;2022-09-09T07:28:25;19.80;89.10
32217;DHT22;18709;51.140;4.088;2022-09-09T07:30:58;19.90;88.80
32217;DHT22;18709;51.140;4.088;2022-09-09T07:33:25;20.20;88.20
32217;DHT22;18709;51.140;4.088;2022-09-09T07:35:51;20.20;88.70
32217;DHT22;18709;51.140;4.088;2022-09-09T07:38:19;20.40;87.40
32217;DHT22;18709;51.140;4.088;2022-09-09T07:40:45;20.50;87.10
32217;DHT22;18709;51.140;4.088;2022-09-09T07:43:11;20.40;86.90
32217;DHT22;18709;51.140;4.088;2022-09-09T07:45:37;20.40;86.40
32217;DHT22;18709;51.140;4.088;2022-09-09T07:48:03;20.40;86.50
32217;DHT22;18709;51.140;4.088;2022-09-09T07:50:29;20.40;87.10
32217;DHT22;18709;51.140;4.088;2022-09-09T07:52:55;20.40;87.70
32217;DHT22;18709;51.140;4.088;2022-09-09T07:55:21;20.40;86.50
32217;DHT22;18709;51.140;4.088;2022-09-09T07:57:51;20.50;86.90
32217;DHT22;18709;51.140;4.088;2022-09-09T08:00:17;20.70;86.20
32217;DHT22;18709;51.140;4.088;2022-09-09T08:02:44;20.70;85.50
32217;DHT22;18709;51.140;4.088;2022-09-09T08:05:10;21.00;85.70
32217;DHT22;18709;51.140;4.088;2022-09-09T08:07:35;21.10;84.60
32217;DHT22;18709;51.140;4.088;2022-09-09T08:10:02;21.20;84.20
32217;DHT22;18709;51.140;4.088;2022-09-09T08:12:28;21.30;83.90
32217;DHT22;18709;51.140;4.088;2022-09-09T08:14:54;21.40;84.00
32217;DHT22;18709;51.140;4.088;2022-09-09T08:17:20;21.50;83.40
32217;DHT22;18709;51.140;4.088;2022-09-09T08:19:45;21.40;83.80
32217;DHT22;18709;51.140;4.088;2022-09-09T08:22:11;21.40;83.20
32217;DHT22;18709;51.140;4.088;2022-09-09T08:24:37;21.40;83.10
32217;DHT22;18709;51.140;4.088;2022-09-09T08:27:02;21.40;83.20
32217;DHT22;18709;51.140;4.088;2022-09-09T08:29:28;21.30;83.50
32217;DHT22;18709;51.140;4.088;2022-09-09T08:31:56;21.20;83.20
32217;DHT22;18709;51.140;4.088;2022-09-09T08:34:24;21.10;83.00
32217;DHT22;18709;51.140;4.088;2022-09-09T08:36:52;21.00;83.20
32217;DHT22;18709;51.140;4.088;2022-09-09T08:39:20;20.80;84.10
32217;DHT22;18709;51.140;4.088;2022-09-09T08:42:06;20.70;84.20
32217;DHT22;18709;51.140;4.088;2022-09-09T08:52:57;20.10;86.10
32217;DHT22;18709;51.140;4.088;2022-09-09T08:55:56;19.90;86.80
32217;DHT22;18709;51.140;4.088;2022-09-09T08:58:33;19.90;87.20
32217;DHT22;18709;51.140;4.088;2022-09-09T09:11:55;19.70;87.50
32217;DHT22;18709;51.140;4.088;2022-09-09T09:14:30;19.60;87.60
32217;DHT22;18709;51.140;4.088;2022-09-09T09:17:15;19.50;88.30
32217;DHT22;18709;51.140;4.088;2022-09-09T09:19:43;19.40;87.90
32217;DHT22;18709;51.140;4.088;2022-09-09T09:22:26;19.30;88.50
32217;DHT22;18709;51.140;4.088;2022-09-09T09:25:14;19.30;88.50
32217;DHT22;18709;51.140;4.088;2022-09-09T09:27:51;19.50;87.90
32217;DHT22;18709;51.140;4.088;2022-09-09T09:30:20;19.30;88.20
32217;DHT22;18709;51.140;4.088;2022-09-09T09:32:58;19.30;88.30
32217;DHT22;18709;51.140;4.088;2022-09-09T09:35:25;19.50;88.20
32217;DHT22;18709;51.140;4.088;2022-09-09T09:37:50;19.40;88.40
32217;DHT22;18709;51.140;4.088;2022-09-09T09:40:19;19.40;88.40
32217;DHT22;18709;51.140;4.088;2022-09-09T09:42:54;19.40;88.50
32217;DHT22;18709;51.140;4.088;2022-09-09T09:47:58;19.50;88.10
32217;DHT22;18709;51.140;4.088;2022-09-09T09:50:24;19.50;88.00
32217;DHT22;18709;51.140;4.088;2022-09-09T09:53:01;19.50;88.00
32217;DHT22;18709;51.140;4.088;2022-09-09T09:55:29;19.50;88.20
32217;DHT22;18709;51.140;4.088;2022-09-09T09:58:06;19.80;87.20
32217;DHT22;18709;51.140;4.088;2022-09-09T10:00:32;20.10;87.50
32217;DHT22;18709;51.140;4.088;2022-09-09T10:03:00;20.20;86.10
32217;DHT22;18709;51.140;4.088;2022-09-09T10:05:29;20.40;85.40
32217;DHT22;18709;51.140;4.088;2022-09-09T10:08:05;20.40;85.70
32217;DHT22;18709;51.140;4.088;2022-09-09T10:16:26;20.50;85.00
32217;DHT22;18709;51.140;4.088;2022-09-09T10:19:06;20.60;84.50
32217;DHT22;18709;51.140;4.088;2022-09-09T10:21:53;20.70;84.10
32217;DHT22;18709;51.140;4.088;2022-09-09T10:27:13;20.90;83.20
32217;DHT22;18709;51.140;4.088;2022-09-09T10:30:03;21.00;82.90
32217;DHT22;18709;51.140;4.088;2022-09-09T10:32:57;21.00;83.00
32217;DHT22;18709;51.140;4.088;2022-09-09T10:38:42;20.90;83.30
32217;DHT22;18709;51.140;4.088;2022-09-09T10:43:59;20.90;83.70
32217;DHT22;18709;51.140;4.088;2022-09-09T10:53:02;20.80;83.50
32217;DHT22;18709;51.140;4.088;2022-09-09T10:57:48;20.90;83.30
32217;DHT22;18709;51.140;4.088;2022-09-09T11:00:22;21.10;83.10
32217;DHT22;18709;51.140;4.088;2022-09-09T11:02:53;21.30;81.80
32217;DHT22;18709;51.140;4.088;2022-09-09T11:05:31;21.40;81.10
32217;DHT22;18709;51.140;4.088;2022-09-09T11:08:10;21.40;81.20
32217;DHT22;18709;51.140;4.088;2022-09-09T11:13:25;21.30;81.60
32217;DHT22;18709;51.140;4.088;2022-09-09T11:15:57;21.30;81.50
32217;DHT22;18709;51.140;4.088;2022-09-09T11:18:28;21.50;81.70
32217;DHT22;18709;51.140;4.088;2022-09-09T11:21:00;22.00;80.90
32217;DHT22;18709;51.140;4.088;2022-09-09T11:23:42;22.50;79.60
32217;DHT22;18709;51.140;4.088;2022-09-09T11:26:17;22.60;77.60
32217;DHT22;18709;51.140;4.088;2022-09-09T11:40:28;23.10;75.60
32217;DHT22;18709;51.140;4.088;2022-09-09T11:43:11;23.30;75.60
32217;DHT22;18709;51.140;4.088;2022-09-09T11:45:42;23.30;75.40
32217;DHT22;18709;51.140;4.088;2022-09-09T11:48:31;23.40;75.30
32217;DHT22;18709;51.140;4.088;2022-09-09T11:51:00;23.80;74.50
32217;DHT22;18709;51.140;4.088;2022-09-09T11:53:26;24.20;73.60
32217;DHT22;18709;51.140;4.088;2022-09-09T11:56:09;24.50;71.90
32217;DHT22;18709;51.140;4.088;2022-09-09T11:58:53;24.70;71.50
32217;DHT22;18709;51.140;4.088;2022-09-09T12:06:50;25.50;69.40
32217;DHT22;18709;51.140;4.088;2022-09-09T12:09:56;25.80;68.10
32217;DHT22;18709;51.140;4.088;2022-09-09T12:17:47;25.30;68.30
32217;DHT22;18709;51.140;4.088;2022-09-09T12:20:21;24.70;69.70
32217;DHT22;18709;51.140;4.088;2022-09-09T12:28:15;23.30;73.60
32217;DHT22;18709;51.140;4.088;2022-09-09T12:31:06;23.00;74.40
32217;DHT22;18709;51.140;4.088;2022-09-09T12:33:38;22.90;75.00
32217;DHT22;18709;51.140;4.088;2022-09-09T12:36:18;23.00;75.20
32217;DHT22;18709;51.140;4.088;2022-09-09T12:38:45;23.50;74.50
32217;DHT22;18709;51.140;4.088;2022-09-09T12:41:27;24.00;73.40
32217;DHT22;18709;51.140;4.088;2022-09-09T12:44:05;24.90;71.50
32217;DHT22;18709;51.140;4.088;2022-09-09T12:49:01;25.10;69.40
32217;DHT22;18709;51.140;4.088;2022-09-09T12:51:31;25.10;68.80
32217;DHT22;18709;51.140;4.088;2022-09-09T12:53:59;25.30;68.80
32217;DHT22;18709;51.140;4.088;2022-09-09T12:56:29;25.40;67.60
32217;DHT22;18709;51.140;4.088;2022-09-09T12:58:57;25.50;67.50
32217;DHT22;18709;51.140;4.088;2022-09-09T13:01:26;25.40;68.00
32217;DHT22;18709;51.140;4.088;2022-09-09T13:03:54;25.60;67.60
32217;DHT22;18709;51.140;4.088;2022-09-09T13:06:31;26.00;67.00
32217;DHT22;18709;51.140;4.088;2022-09-09T13:09:00;25.90;66.70
32217;DHT22;18709;51.140;4.088;2022-09-09T13:11:39;25.40;67.40
32217;DHT22;18709;51.140;4.088;2022-09-09T13:14:16;25.20;68.60
32217;DHT22;18709;51.140;4.088;2022-09-09T13:16:55;25.20;68.80
32217;DHT22;18709;51.140;4.088;2022-09-09T13:19:21;25.30;67.50
32217;DHT22;18709;51.140;4.088;2022-09-09T13:21:47;25.20;67.70
32217;DHT22;18709;51.140;4.088;2022-09-09T13:27:02;24.60;68.80
32217;DHT22;18709;51.140;4.088;2022-09-09T13:29:30;24.40;69.10
32217;DHT22;18709;51.140;4.088;2022-09-09T13:32:18;24.30;70.60
32217;DHT22;18709;51.140;4.088;2022-09-09T13:34:55;24.20;69.90
32217;DHT22;18709;51.140;4.088;2022-09-09T13:37:37;24.30;70.10
32217;DHT22;18709;51.140;4.088;2022-09-09T13:40:05;24.60;69.60
32217;DHT22;18709;51.140;4.088;2022-09-09T13:42:39;24.90;68.70
32217;DHT22;18709;51.140;4.088;2022-09-09T13:45:19;24.90;67.90
32217;DHT22;18709;51.140;4.088;2022-09-09T13:47:49;25.20;68.20
32217;DHT22;18709;51.140;4.088;2022-09-09T13:50:26;25.50;67.60
32217;DHT22;18709;51.140;4.088;2022-09-09T13:52:54;25.70;66.80
32217;DHT22;18709;51.140;4.088;2022-09-09T13:55:22;26.00;66.60
32217;DHT22;18709;51.140;4.088;2022-09-09T13:57:56;26.50;65.90
32217;DHT22;18709;51.140;4.088;2022-09-09T14:00:23;27.30;64.00
32217;DHT22;18709;51.140;4.088;2022-09-09T14:02:50;27.70;62.20
32217;DHT22;18709;51.140;4.088;2022-09-09T14:05:17;27.30;62.20
32217;DHT22;18709;51.140;4.088;2022-09-09T14:07:43;27.00;63.20
32217;DHT22;18709;51.140;4.088;2022-09-09T14:10:10;26.90;63.70
32217;DHT22;18709;51.140;4.088;2022-09-09T14:12:36;26.50;63.70
32217;DHT22;18709;51.140;4.088;2022-09-09T14:15:05;26.00;65.20
32217;DHT22;18709;51.140;4.088;2022-09-09T14:17:32;25.70;66.00
32217;DHT22;18709;51.140;4.088;2022-09-09T14:19:58;25.50;65.40
32217;DHT22;18709;51.140;4.088;2022-09-09T14:22:24;25.30;65.20
32217;DHT22;18709;51.140;4.088;2022-09-09T14:24:51;25.70;65.40
32217;DHT22;18709;51.140;4.088;2022-09-09T14:27:17;25.90;64.20
32217;DHT22;18709;51.140;4.088;2022-09-09T14:29:43;25.90;64.10
32217;DHT22;18709;51.140;4.088;2022-09-09T14:32:10;26.40;63.40
32217;DHT22;18709;51.140;4.088;2022-09-09T14:34:36;26.30;63.20
32217;DHT22;18709;51.140;4.088;2022-09-09T14:37:01;25.80;62.60
32217;DHT22;18709;51.140;4.088;2022-09-09T14:39:27;25.20;63.50
32217;DHT22;18709;51.140;4.088;2022-09-09T14:41:53;24.60;65.50
32217;DHT22;18709;51.140;4.088;2022-09-09T14:44:19;24.50;66.10
32217;DHT22;18709;51.140;4.088;2022-09-09T14:46:45;24.00;67.10
32217;DHT22;18709;51.140;4.088;2022-09-09T14:49:11;23.90;67.90
32217;DHT22;18709;51.140;4.088;2022-09-09T14:51:38;23.60;69.20
32217;DHT22;18709;51.140;4.088;2022-09-09T14:54:04;23.40;70.60
32217;DHT22;18709;51.140;4.088;2022-09-09T14:56:32;23.40;72.70
32217;DHT22;18709;51.140;4.088;2022-09-09T14:59:01;24.00;71.10
32217;DHT22;18709;51.140;4.088;2022-09-09T15:01:27;24.60;69.40
32217;DHT22;18709;51.140;4.088;2022-09-09T15:03:59;25.00;67.50
32217;DHT22;18709;51.140;4.088;2022-09-09T15:06:27;25.00;67.00
32217;DHT22;18709;51.140;4.088;2022-09-09T15:08:55;24.80;66.90
32217;DHT22;18709;51.140;4.088;2022-09-09T15:11:23;24.60;67.20
32217;DHT22;18709;51.140;4.088;2022-09-09T15:13:52;24.20;68.40
32217;DHT22;18709;51.140;4.088;2022-09-09T15:16:23;23.90;69.90
32217;DHT22;18709;51.140;4.088;2022-09-09T15:18:52;23.50;71.00
32217;DHT22;18709;51.140;4.088;2022-09-09T15:21:20;23.40;71.40
32217;DHT22;18709;51.140;4.088;2022-09-09T15:23:46;23.40;71.40
32217;DHT22;18709;51.140;4.088;2022-09-09T15:26:17;23.30;71.70
32217;DHT22;18709;51.140;4.088;2022-09-09T15:28:44;23.10;73.40
32217;DHT22;18709;51.140;4.088;2022-09-09T15:31:11;22.80;74.80
32217;DHT22;18709;51.140;4.088;2022-09-09T15:33:37;22.50;75.50
32217;DHT22;18709;51.140;4.088;2022-09-09T15:36:26;22.40;76.50
32217;DHT22;18709;51.140;4.088;2022-09-09T15:38:52;22.20;77.70
32217;DHT22;18709;51.140;4.088;2022-09-09T15:41:20;22.00;78.70
32217;DHT22;18709;51.140;4.088;2022-09-09T15:43:49;22.00;79.30
32217;DHT22;18709;51.140;4.088;2022-09-09T15:46:37;22.00;79.90
32217;DHT22;18709;51.140;4.088;2022-09-09T15:49:07;21.90;80.90
32217;DHT22;18709;51.140;4.088;2022-09-09T15:51:35;21.90;81.30
32217;DHT22;18709;51.140;4.088;2022-09-09T15:54:01;21.90;81.10
32217;DHT22;18709;51.140;4.088;2022-09-09T15:56:28;22.10;80.50
32217;DHT22;18709;51.140;4.088;2022-09-09T15:58:56;22.10;80.80
32217;DHT22;18709;51.140;4.088;2022-09-09T16:01:23;22.60;79.70
32217;DHT22;18709;51.140;4.088;2022-09-09T16:03:49;22.80;79.50
32217;DHT22;18709;51.140;4.088;2022-09-09T16:06:18;23.10;78.50
32217;DHT22;18709;51.140;4.088;2022-09-09T16:08:45;23.20;78.00
32217;DHT22;18709;51.140;4.088;2022-09-09T16:11:14;23.20;77.90
32217;DHT22;18709;51.140;4.088;2022-09-09T16:13:42;23.10;78.30
32217;DHT22;18709;51.140;4.088;2022-09-09T16:16:12;23.00;78.20
32217;DHT22;18709;51.140;4.088;2022-09-09T16:18:40;22.80;78.90
32217;DHT22;18709;51.140;4.088;2022-09-09T16:21:07;22.70;79.90
32217;DHT22;18709;51.140;4.088;2022-09-09T16:23:34;22.50;80.40
32217;DHT22;18709;51.140;4.088;2022-09-09T16:26:01;22.40;81.10
32217;DHT22;18709;51.140;4.088;2022-09-09T16:28:27;22.50;81.50
32217;DHT22;18709;51.140;4.088;2022-09-09T16:30:53;22.60;81.10
32217;DHT22;18709;51.140;4.088;2022-09-09T16:33:19;22.60;81.50
32217;DHT22;18709;51.140;4.088;2022-09-09T16:35:45;22.60;80.90
32217;DHT22;18709;51.140;4.088;2022-09-09T16:38:11;22.70;80.60
32217;DHT22;18709;51.140;4.088;2022-09-09T16:40:37;22.90;80.20
32217;DHT22;18709;51.140;4.088;2022-09-09T16:43:04;23.00;80.30
32217;DHT22;18709;51.140;4.088;2022-09-09T16:45:31;23.10;79.60
32217;DHT22;18709;51.140;4.088;2022-09-09T16:47:58;23.10;79.50
32217;DHT22;18709;51.140;4.088;2022-09-09T16:50:24;23.20;79.60
32217;DHT22;18709;51.140;4.088;2022-09-09T16:52:52;23.10;79.30
32217;DHT22;18709;51.140;4.088;2022-09-09T16:55:18;23.10;79.20
32217;DHT22;18709;51.140;4.088;2022-09-09T16:57:46;23.10;79.00
32217;DHT22;18709;51.140;4.088;2022-09-09T17:00:15;23.20;79.30
32217;DHT22;18709;51.140;4.088;2022-09-09T17:02:43;23.20;79.50
32217;DHT22;18709;51.140;4.088;2022-09-09T17:05:10;23.20;79.70
32217;DHT22;18709;51.140;4.088;2022-09-09T17:07:37;23.20;79.70
32217;DHT22;18709;51.140;4.088;2022-09-09T17:10:04;23.10;79.90
32217;DHT22;18709;51.140;4.088;2022-09-09T17:12:31;23.20;80.20
32217;DHT22;18709;51.140;4.088;2022-09-09T17:14:57;23.20;79.90
32217;DHT22;18709;51.140;4.088;2022-09-09T17:17:25;23.20;80.00
32217;DHT22;18709;51.140;4.088;2022-09-09T17:19:52;23.20;79.90
32217;DHT22;18709;51.140;4.088;2022-09-09T17:22:18;23.00;80.50
32217;DHT22;18709;51.140;4.088;2022-09-09T17:24:45;22.90;80.60
32217;DHT22;18709;51.140;4.088;2022-09-09T17:27:11;22.80;80.60
32217;DHT22;18709;51.140;4.088;2022-09-09T17:29:38;22.80;80.90
32217;DHT22;18709;51.140;4.088;2022-09-09T17:32:04;22.60;80.60
32217;DHT22;18709;51.140;4.088;2022-09-09T17:34:30;22.40;81.00
32217;DHT22;18709;51.140;4.088;2022-09-09T17:36:56;22.20;81.20
32217;DHT22;18709;51.140;4.088;2022-09-09T17:39:22;22.20;81.30
32217;DHT22;18709;51.140;4.088;2022-09-09T17:41:48;22.30;81.20
32217;DHT22;18709;51.140;4.088;2022-09-09T17:44:14;22.20;81.20
32217;DHT22;18709;51.140;4.088;2022-09-09T17:46:42;22.20;81.50
32217;DHT22;18709;51.140;4.088;2022-09-09T17:49:17;22.20;81.90
32217;DHT22;18709;51.140;4.088;2022-09-09T17:51:44;22.00;82.40
32217;DHT22;18709;51.140;4.088;2022-09-09T17:54:14;21.90;82.90
32217;DHT22;18709;51.140;4.088;2022-09-09T17:56:40;21.60;83.90
32217;DHT22;18709;51.140;4.088;2022-09-09T17:59:07;21.40;84.60
32217;DHT22;18709;51.140;4.088;2022-09-09T18:01:37;21.30;84.40
32217;DHT22;18709;51.140;4.088;2022-09-09T18:04:05;21.20;84.50
32217;DHT22;18709;51.140;4.088;2022-09-09T18:06:43;21.30;84.40
32217;DHT22;18709;51.140;4.088;2022-09-09T18:09:12;21.20;84.30